createdAt,value
2023-04-08T00:02:17.633Z,12.30
2023-04-08T00:05:04.959Z,12.60
2023-04-08T00:07:51.775Z,13.07
2023-04-08T00:10:38.601Z,12.47
2023-04-08T00:13:26.964Z,12.60
2023-04-08T00:16:13.762Z,12.67
2023-04-08T00:19:00.498Z,12.90
2023-04-08T00:21:47.712Z,12.43
2023-04-08T00:24:34.546Z,12.50
2023-04-08T00:27:21.200Z,13.10
2023-04-08T00:30:10.252Z,13.73
2023-04-08T00:32:57.575Z,13.70
2023-04-08T00:35:44.104Z,13.17
2023-04-08T00:38:31.026Z,13.07
2023-04-08T00:41:17.745Z,13.10
2023-04-08T00:44:04.756Z,13.73
2023-04-08T00:46:52.917Z,12.57
2023-04-08T00:49:39.728Z,11.93
2023-04-08T00:52:26.764Z,13.90
2023-04-08T00:55:13.467Z,12.67
2023-04-08T00:58:00.452Z,13.10
2023-04-08T01:00:55.802Z,12.50
2023-04-08T01:03:58.266Z,13.27
2023-04-08T01:06:50.788Z,13.00
2023-04-08T01:09:40.427Z,12.97
2023-04-08T01:12:28.680Z,13.77
2023-04-08T01:15:17.090Z,12.20
2023-04-08T01:18:08.449Z,12.97
2023-04-08T01:20:57.606Z,12.17
2023-04-08T01:24:00.734Z,12.23
2023-04-08T01:26:49.070Z,11.73
2023-04-08T01:29:36.556Z,12.60
2023-04-08T01:32:28.323Z,12.57
2023-04-08T01:35:17.317Z,12.17
2023-04-08T01:38:06.313Z,13.00
2023-04-08T01:40:54.458Z,11.37
2023-04-08T01:43:44.920Z,11.97
2023-04-08T01:46:33.273Z,11.77
2023-04-08T01:49:20.670Z,12.13
2023-04-08T01:52:10.479Z,12.27
2023-04-08T01:54:58.099Z,12.93
2023-04-08T01:57:48.954Z,12.80
2023-04-08T02:00:38.431Z,12.60
2023-04-08T02:03:26.915Z,11.47
2023-04-08T02:06:14.420Z,11.70
2023-04-08T02:09:02.146Z,11.57
2023-04-08T02:11:48.834Z,11.53
2023-04-08T02:14:35.754Z,13.33
2023-04-08T02:17:35.890Z,12.70
2023-04-08T02:20:25.519Z,12.47
2023-04-08T02:23:16.712Z,13.03
2023-04-08T02:26:05.981Z,11.33
2023-04-08T02:28:55.429Z,12.53
2023-04-08T02:31:43.460Z,12.60
2023-04-08T02:34:31.910Z,12.63
2023-04-08T02:37:21.079Z,12.67
2023-04-08T02:40:26.502Z,12.60
2023-04-08T02:43:13.191Z,12.50
2023-04-08T02:46:03.590Z,12.20
2023-04-08T02:48:50.774Z,12.10
2023-04-08T02:51:38.592Z,12.70
2023-04-08T02:54:25.855Z,14.00
2023-04-08T02:57:13.126Z,13.40
2023-04-08T02:59:59.562Z,13.07
2023-04-08T03:02:46.546Z,12.00
2023-04-08T03:05:33.662Z,13.10
2023-04-08T03:08:21.868Z,13.20
2023-04-08T03:11:08.611Z,12.00
2023-04-08T03:13:55.537Z,12.73
2023-04-08T03:16:42.271Z,12.27
2023-04-08T03:19:28.971Z,13.17
2023-04-08T03:22:15.738Z,12.63
2023-04-08T03:25:04.491Z,13.33
2023-04-08T03:27:51.155Z,12.20
2023-04-08T03:30:38.215Z,12.27
2023-04-08T03:33:25.037Z,12.43
2023-04-08T03:36:12.315Z,12.37
2023-04-08T03:38:59.253Z,11.67
2023-04-08T03:41:47.409Z,12.50
2023-04-08T03:44:34.419Z,10.53
2023-04-08T03:47:21.009Z,10.87
2023-04-08T03:50:08.930Z,11.67
2023-04-08T03:52:55.881Z,10.50
2023-04-08T03:55:42.598Z,12.07
2023-04-08T03:58:30.714Z,11.67
2023-04-08T04:01:17.783Z,12.40
2023-04-08T04:04:04.787Z,11.20
2023-04-08T04:06:51.471Z,12.60
2023-04-08T04:09:38.293Z,13.80
2023-04-08T04:12:25.339Z,14.13
2023-04-08T04:15:13.639Z,13.27
2023-04-08T04:18:00.428Z,12.33
2023-04-08T04:20:47.461Z,13.47
2023-04-08T04:23:34.312Z,13.80
2023-04-08T04:26:21.088Z,13.53
2023-04-08T04:29:08.099Z,14.07
2023-04-08T04:31:56.126Z,15.47
2023-04-08T04:34:44.516Z,12.77
2023-04-08T04:37:31.434Z,11.97
2023-04-08T04:40:18.076Z,15.30
2023-04-08T04:43:04.801Z,14.47
2023-04-08T04:45:51.733Z,13.50
2023-04-08T04:48:39.734Z,15.07
2023-04-08T04:51:27.191Z,14.77
2023-04-08T04:54:13.758Z,14.60
2023-04-08T04:57:01.124Z,19.37
2023-04-08T04:59:47.903Z,16.53
2023-04-08T05:02:34.924Z,16.30
2023-04-08T05:05:23.432Z,16.77
2023-04-08T05:08:10.359Z,15.73
2023-04-08T05:10:57.057Z,16.53
2023-04-08T05:13:43.887Z,17.83
2023-04-08T05:16:30.994Z,15.93
2023-04-08T05:19:17.659Z,16.90
2023-04-08T05:22:05.711Z,13.07
2023-04-08T05:24:52.633Z,17.57
2023-04-08T05:27:40.575Z,16.47
2023-04-08T05:30:27.264Z,17.07
2023-04-08T05:33:13.954Z,17.47
2023-04-08T05:36:00.794Z,15.23
2023-04-08T05:38:49.166Z,15.47
2023-04-08T05:41:36.168Z,16.53
2023-04-08T05:44:23.053Z,16.63
2023-04-08T05:47:09.835Z,16.53
2023-04-08T05:49:56.900Z,16.97
2023-04-08T05:52:44.921Z,17.80
2023-04-08T05:55:33.004Z,18.23
2023-04-08T05:58:19.735Z,16.43
2023-04-08T06:01:07.505Z,19.03
2023-04-08T06:03:56.368Z,17.97
2023-04-08T06:06:43.092Z,17.67
2023-04-08T06:09:29.893Z,17.53
2023-04-08T06:12:18.152Z,18.93
2023-04-08T06:15:05.328Z,17.93
2023-04-08T06:17:51.948Z,19.70
2023-04-08T06:20:38.811Z,17.47
2023-04-08T06:23:25.806Z,17.93
2023-04-08T06:26:13.394Z,19.83
2023-04-08T06:29:02.064Z,17.77
2023-04-08T06:31:48.769Z,17.87
2023-04-08T06:34:35.722Z,19.50
2023-04-08T06:37:22.476Z,18.03
2023-04-08T06:40:10.325Z,18.13
2023-04-08T06:42:57.235Z,19.97
2023-04-08T06:45:57.073Z,17.53
2023-04-08T06:48:43.830Z,17.07
2023-04-08T06:51:31.544Z,18.20
2023-04-08T06:54:18.225Z,17.13
2023-04-08T06:57:05.393Z,18.43
2023-04-08T06:59:53.584Z,18.67
2023-04-08T07:02:42.090Z,17.70
2023-04-08T07:05:28.960Z,19.23
2023-04-08T07:08:15.748Z,17.10
2023-04-08T07:11:02.630Z,18.73
2023-04-08T07:13:49.163Z,18.03
2023-04-08T07:16:36.073Z,18.27
2023-04-08T07:19:24.570Z,16.73
2023-04-08T07:22:11.538Z,16.77
2023-04-08T07:24:58.118Z,17.33
2023-04-08T07:27:45.009Z,17.63
2023-04-08T07:30:31.977Z,18.63
2023-04-08T07:33:18.620Z,17.10
2023-04-08T07:36:07.336Z,17.33
2023-04-08T07:38:53.870Z,17.43
2023-04-08T07:41:40.735Z,19.53
2023-04-08T07:44:27.567Z,17.33
2023-04-08T07:47:14.447Z,19.03
2023-04-08T07:50:01.274Z,17.40
2023-04-08T07:52:49.349Z,17.00
2023-04-08T07:55:36.324Z,19.00
2023-04-08T07:58:23.017Z,17.33
2023-04-08T08:01:18.047Z,18.70
2023-04-08T08:04:05.674Z,18.53
2023-04-08T08:06:52.916Z,17.77
2023-04-08T08:09:40.956Z,17.97
2023-04-08T08:12:27.576Z,18.53
2023-04-08T08:15:14.973Z,18.33
2023-04-08T08:18:01.596Z,15.47
2023-04-08T08:20:48.396Z,17.77
2023-04-08T08:23:35.227Z,17.17
2023-04-08T08:26:23.548Z,16.30
2023-04-08T08:29:10.334Z,16.60
2023-04-08T08:31:56.938Z,16.87
2023-04-08T08:34:43.808Z,16.93
2023-04-08T08:37:30.774Z,17.27
2023-04-08T08:40:17.916Z,16.47
2023-04-08T08:43:05.931Z,17.50
2023-04-08T08:45:52.953Z,17.53
2023-04-08T08:48:40.832Z,16.03
2023-04-08T08:51:29.044Z,16.27
2023-04-08T08:54:17.025Z,16.23
2023-04-08T08:57:03.563Z,14.67
2023-04-08T08:59:51.636Z,16.33
2023-04-08T09:02:38.554Z,17.97
2023-04-08T09:05:25.240Z,17.43
2023-04-08T09:08:24.717Z,16.93
2023-04-08T09:11:16.401Z,15.63
2023-04-08T09:14:03.219Z,15.60
2023-04-08T09:16:52.380Z,15.50
2023-04-08T09:19:39.035Z,14.83
2023-04-08T09:22:26.220Z,15.30
2023-04-08T09:25:24.326Z,16.93
2023-04-08T09:28:21.534Z,17.27
2023-04-08T09:31:23.312Z,17.10
2023-04-08T09:34:14.659Z,16.80
2023-04-08T09:37:01.569Z,16.77
2023-04-08T09:39:48.944Z,15.77
2023-04-08T09:42:40.873Z,17.03
2023-04-08T09:45:28.475Z,15.33
2023-04-08T09:48:24.381Z,17.23
2023-04-08T09:51:17.452Z,16.60
2023-04-08T09:54:07.915Z,15.93
2023-04-08T09:57:03.643Z,14.07
2023-04-08T09:59:59.360Z,15.37
2023-04-08T10:02:56.682Z,14.77
2023-04-08T10:05:45.085Z,15.10
2023-04-08T10:08:33.932Z,15.67
2023-04-08T10:11:21.366Z,16.27
2023-04-08T10:14:11.910Z,15.90
2023-04-08T10:17:25.663Z,16.47
2023-04-08T10:20:43.046Z,17.07
2023-04-08T10:23:59.937Z,15.30
2023-04-08T10:26:48.906Z,15.33
2023-04-08T10:29:35.753Z,14.43
2023-04-08T10:32:41.897Z,15.43
2023-04-08T10:35:30.492Z,14.23
2023-04-08T10:38:18.027Z,14.60
2023-04-08T10:41:06.371Z,13.90
2023-04-08T10:43:53.245Z,13.17
2023-04-08T10:46:40.102Z,14.77
2023-04-08T10:49:34.689Z,13.30
2023-04-08T10:52:21.918Z,13.87
2023-04-08T10:55:09.203Z,12.97
2023-04-08T10:57:58.287Z,13.90
2023-04-08T11:00:45.283Z,14.17
2023-04-08T11:03:33.998Z,14.60
2023-04-08T11:06:20.840Z,13.63
2023-04-08T11:09:07.676Z,13.77
2023-04-08T11:11:55.091Z,16.50
2023-04-08T11:14:44.114Z,12.10
2023-04-08T11:17:31.353Z,12.33
2023-04-08T11:20:18.545Z,13.37
2023-04-08T11:23:05.122Z,13.93
2023-04-08T11:25:56.652Z,12.60
2023-04-08T11:28:44.719Z,12.63
2023-04-08T11:31:33.885Z,13.07
2023-04-08T11:34:25.018Z,12.53
2023-04-08T11:37:11.750Z,14.03
2023-04-08T11:39:58.455Z,12.40
2023-04-08T11:42:47.026Z,13.90
2023-04-08T11:45:39.760Z,13.77
2023-04-08T11:48:28.932Z,13.43
2023-04-08T11:51:16.198Z,12.47
2023-04-08T11:54:06.252Z,13.43
2023-04-08T11:56:53.653Z,12.53
2023-04-08T11:59:40.298Z,12.87
2023-04-08T12:02:27.484Z,12.70
2023-04-08T12:05:16.069Z,12.87
2023-04-08T12:08:02.608Z,11.97
2023-04-08T12:10:49.457Z,12.50
2023-04-08T12:13:36.130Z,12.63
2023-04-08T12:16:22.971Z,11.90
2023-04-08T12:19:09.836Z,12.47
2023-04-08T12:21:57.859Z,12.50
2023-04-08T12:24:44.679Z,12.17
2023-04-08T12:27:33.536Z,12.73
2023-04-08T12:30:20.438Z,14.20
2023-04-08T12:33:07.301Z,13.23
2023-04-08T12:35:54.310Z,12.20
2023-04-08T12:38:42.200Z,15.60
2023-04-08T12:41:28.874Z,12.33
2023-04-08T12:44:15.626Z,12.53
2023-04-08T12:47:02.597Z,13.13
2023-04-08T12:49:50.173Z,13.33
2023-04-08T12:52:36.598Z,11.93
2023-04-08T12:55:26.115Z,13.10
2023-04-08T12:58:12.987Z,12.93
2023-04-08T13:00:59.760Z,12.60
2023-04-08T13:03:48.037Z,12.17
2023-04-08T13:06:34.838Z,10.90
2023-04-08T13:09:25.292Z,11.83
2023-04-08T13:12:16.315Z,10.77
2023-04-08T13:15:03.106Z,11.70
2023-04-08T13:17:50.324Z,12.03
2023-04-08T13:20:38.202Z,12.60
2023-04-08T13:23:24.923Z,12.47
2023-04-08T13:26:11.590Z,10.10
2023-04-08T13:29:00.206Z,9.50
2023-04-08T13:31:47.149Z,10.73
2023-04-08T13:34:33.548Z,9.80
2023-04-08T13:37:20.238Z,10.77
2023-04-08T13:40:08.920Z,9.70
2023-04-08T13:42:55.961Z,10.23
2023-04-08T13:45:44.741Z,9.83
2023-04-08T13:48:31.507Z,8.53
2023-04-08T13:51:18.123Z,8.80
2023-04-08T13:54:05.237Z,9.20
2023-04-08T13:56:51.788Z,9.57
2023-04-08T13:59:38.733Z,8.87
2023-04-08T14:02:26.968Z,7.97
2023-04-08T14:05:13.867Z,8.60
2023-04-08T14:08:00.819Z,8.60
2023-04-08T14:10:47.868Z,9.00
2023-04-08T14:13:34.425Z,8.80
2023-04-08T14:16:21.481Z,8.87
2023-04-08T14:19:09.521Z,8.70
2023-04-08T14:21:56.427Z,8.43
2023-04-08T14:24:44.041Z,7.93
2023-04-08T14:27:30.940Z,7.10
2023-04-08T14:30:17.725Z,6.90
2023-04-08T14:33:05.535Z,7.60
2023-04-08T14:35:55.308Z,8.00
2023-04-08T14:38:41.929Z,8.43
2023-04-08T14:41:29.401Z,8.00
2023-04-08T14:44:16.185Z,7.70
2023-04-08T14:47:03.174Z,8.30
2023-04-08T14:49:49.681Z,8.37
2023-04-08T14:52:37.767Z,7.93
2023-04-08T14:55:25.872Z,9.03
2023-04-08T14:58:12.872Z,8.13
2023-04-08T15:00:59.454Z,7.73
2023-04-08T15:03:46.489Z,7.57
2023-04-08T15:06:33.012Z,7.27
2023-04-08T15:09:21.039Z,7.27
2023-04-08T15:12:07.767Z,7.57
2023-04-08T15:14:54.599Z,7.87
2023-04-08T15:17:41.393Z,9.63
2023-04-08T15:20:28.128Z,10.43
2023-04-08T15:23:15.171Z,10.50
2023-04-08T15:26:02.988Z,11.57
2023-04-08T15:28:49.784Z,11.93
2023-04-08T15:31:36.653Z,11.27
2023-04-08T15:34:24.007Z,12.33
2023-04-08T15:37:11.067Z,11.83
2023-04-08T15:39:57.636Z,12.53
2023-04-08T15:42:46.174Z,11.40
2023-04-08T15:45:33.618Z,10.30
2023-04-08T15:48:20.694Z,10.40
2023-04-08T15:51:12.682Z,10.40
2023-04-08T15:53:59.235Z,10.00
2023-04-08T15:56:46.703Z,9.83
2023-04-08T15:59:34.556Z,12.20
2023-04-08T16:02:21.442Z,14.30
2023-04-08T16:05:09.254Z,13.67
2023-04-08T16:07:55.591Z,14.20
2023-04-08T16:10:42.389Z,14.83
2023-04-08T16:13:30.080Z,15.70
2023-04-08T16:16:18.117Z,14.17
2023-04-08T16:19:05.016Z,16.23
2023-04-08T16:21:51.776Z,16.03
2023-04-08T16:24:38.635Z,16.33
2023-04-08T16:27:25.426Z,16.10
2023-04-08T16:30:13.056Z,16.93
2023-04-08T16:33:01.527Z,17.00
2023-04-08T16:35:49.343Z,16.20
2023-04-08T16:38:35.928Z,16.00
2023-04-08T16:41:23.104Z,15.80
2023-04-08T16:44:09.527Z,16.80
2023-04-08T16:46:56.509Z,16.70
2023-04-08T16:49:44.355Z,15.20
2023-04-08T16:52:31.226Z,15.40
2023-04-08T16:55:18.267Z,15.83
2023-04-08T16:58:05.600Z,16.20
2023-04-08T17:00:52.182Z,15.90
2023-04-08T17:03:39.124Z,15.10
2023-04-08T17:06:27.555Z,15.73
2023-04-08T17:12:01.379Z,14.73
2023-04-08T17:14:48.192Z,16.57
2023-04-08T17:17:35.035Z,15.77
2023-04-08T17:20:22.215Z,15.70
2023-04-08T17:23:10.266Z,15.97
2023-04-08T17:25:57.185Z,15.27
2023-04-08T17:28:47.260Z,15.80
2023-04-08T17:31:34.087Z,16.37
2023-04-08T17:34:20.528Z,15.60
2023-04-08T17:37:07.761Z,16.33
2023-04-08T17:39:55.756Z,15.77
2023-04-08T17:42:42.213Z,15.93
2023-04-08T17:45:29.017Z,15.67
2023-04-08T17:48:15.772Z,14.37
2023-04-08T17:51:02.809Z,14.87
2023-04-08T17:53:49.365Z,14.03
2023-04-08T17:56:39.367Z,15.17
2023-04-08T17:59:26.502Z,14.13
2023-04-08T18:02:19.351Z,13.60
2023-04-08T18:05:07.913Z,13.57
2023-04-08T18:07:54.605Z,16.20
2023-04-08T18:10:43.532Z,13.73
2023-04-08T18:13:31.689Z,12.83
2023-04-08T18:16:19.289Z,16.37
2023-04-08T18:19:05.838Z,15.43
2023-04-08T18:21:52.417Z,16.07
2023-04-08T18:24:42.880Z,15.17
2023-04-08T18:27:29.742Z,15.07
2023-04-08T18:30:17.990Z,15.53
2023-04-08T18:33:05.017Z,14.73
2023-04-08T18:35:52.735Z,15.50
2023-04-08T18:38:40.941Z,15.63
2023-04-08T18:41:28.052Z,15.43
2023-04-08T18:44:14.603Z,16.10
2023-04-08T18:47:03.263Z,16.07
2023-04-08T18:49:50.039Z,16.13
2023-04-08T18:52:37.565Z,16.27
2023-04-08T18:55:24.295Z,15.23
2023-04-08T18:58:11.361Z,15.50
2023-04-08T19:00:57.956Z,14.87
2023-04-08T19:03:46.218Z,14.37
2023-04-08T19:06:35.890Z,15.30
2023-04-08T19:09:30.088Z,15.60
2023-04-08T19:12:16.632Z,14.73
2023-04-08T19:15:04.439Z,15.47
2023-04-08T19:17:51.635Z,15.27
2023-04-08T19:20:39.757Z,15.30
2023-04-08T19:23:26.500Z,16.20
2023-04-08T19:26:15.345Z,15.37
2023-04-08T19:29:02.249Z,16.17
2023-04-08T19:31:48.855Z,16.47
2023-04-08T19:34:38.403Z,16.27
2023-04-08T19:37:27.045Z,17.13
2023-04-08T19:40:13.752Z,16.63
2023-04-08T19:43:00.413Z,17.57
2023-04-08T19:45:47.347Z,17.77
2023-04-08T19:48:34.873Z,17.63
2023-04-08T19:51:23.091Z,18.50
2023-04-08T19:54:10.934Z,18.57
2023-04-08T19:56:58.500Z,18.57
2023-04-08T19:59:45.053Z,17.93
2023-04-08T20:02:32.983Z,18.20
2023-04-08T20:05:20.699Z,19.40
2023-04-08T20:08:07.669Z,18.43
2023-04-08T20:10:55.686Z,18.40
2023-04-08T20:13:42.246Z,21.17
2023-04-08T20:16:29.290Z,20.70
2023-04-08T20:19:16.090Z,20.80
2023-04-08T20:22:03.242Z,20.87
2023-04-08T20:24:50.178Z,21.50
2023-04-08T20:27:38.593Z,21.60
2023-04-08T20:30:25.784Z,20.07
2023-04-08T20:33:16.251Z,19.43
2023-04-08T20:36:03.472Z,20.90
2023-04-08T20:38:53.905Z,20.90
2023-04-08T20:41:41.191Z,18.73
2023-04-08T20:44:29.982Z,19.40
2023-04-08T20:47:16.957Z,20.87
2023-04-08T20:50:03.905Z,19.30
2023-04-08T20:52:50.349Z,20.20
2023-04-08T20:55:37.212Z,20.10
2023-04-08T20:58:24.138Z,19.70
2023-04-08T21:01:12.245Z,19.33
2023-04-08T21:03:59.742Z,20.27
2023-04-08T21:06:49.314Z,19.70
2023-04-08T21:09:36.662Z,20.77
2023-04-08T21:12:23.385Z,19.47
2023-04-08T21:15:10.898Z,19.60
2023-04-08T21:17:58.895Z,19.77
2023-04-08T21:20:46.676Z,20.10
2023-04-08T21:23:33.496Z,19.27
2023-04-08T21:26:21.407Z,19.50
2023-04-08T21:29:07.914Z,19.57
2023-04-08T21:31:54.773Z,19.37
2023-04-08T21:34:47.679Z,20.27
2023-04-08T21:37:34.932Z,18.67
2023-04-08T21:40:21.445Z,20.40
2023-04-08T21:43:08.361Z,20.47
2023-04-08T21:46:00.599Z,19.93
2023-04-08T21:48:47.013Z,20.10
2023-04-08T21:51:35.958Z,19.50
2023-04-08T21:54:22.573Z,20.33
2023-04-08T21:57:09.329Z,20.00
2023-04-08T21:59:59.740Z,20.00
2023-04-08T22:02:47.372Z,21.10
2023-04-08T22:05:34.492Z,19.77
2023-04-08T22:08:23.405Z,19.63
2023-04-08T22:11:09.918Z,20.20
2023-04-08T22:13:58.152Z,21.07
2023-04-08T22:16:44.842Z,20.23
2023-04-08T22:19:31.511Z,19.23
2023-04-08T22:22:18.038Z,20.23
2023-04-08T22:25:07.601Z,20.60
2023-04-08T22:27:54.553Z,20.23
2023-04-08T22:30:41.348Z,19.53
2023-04-08T22:33:28.834Z,19.87
2023-04-08T22:36:15.624Z,20.03
2023-04-08T22:39:02.375Z,22.57
2023-04-08T22:41:50.598Z,22.00
2023-04-08T22:44:37.519Z,20.87
2023-04-08T22:47:24.545Z,20.60
2023-04-08T22:50:11.857Z,22.10
2023-04-08T22:52:58.451Z,22.93
2023-04-08T22:55:45.181Z,22.03
2023-04-08T22:58:33.479Z,21.70
2023-04-08T23:01:22.267Z,25.10
2023-04-08T23:04:09.083Z,23.53
2023-04-08T23:06:55.792Z,23.33
2023-04-08T23:09:42.882Z,22.00
2023-04-08T23:12:29.428Z,22.30
2023-04-08T23:15:17.561Z,23.03
2023-04-08T23:18:04.034Z,25.47
2023-04-08T23:20:54.526Z,24.90
2023-04-08T23:23:40.993Z,25.43
2023-04-08T23:26:27.609Z,36.43
2023-04-08T23:29:14.408Z,45.13
2023-04-08T23:32:02.502Z,29.90
2023-04-08T23:34:49.175Z,25.70
2023-04-08T23:37:35.910Z,24.23
2023-04-08T23:40:22.824Z,21.77
2023-04-08T23:43:09.691Z,22.10
2023-04-08T23:45:56.552Z,19.80
2023-04-08T23:48:44.735Z,21.93
2023-04-08T23:51:32.096Z,21.37
2023-04-08T23:54:18.603Z,22.23
2023-04-08T23:57:05.509Z,22.20
2023-04-08T23:59:52.111Z,21.77
